Time,TemperatureF,DewpointF,PressureIn,WindDirection,WindDirectionDegrees,WindSpeedMPH,WindSpeedGustMPH,Humidity,HourlyPrecipIn,Conditions,Clouds,dailyrainin,SoftwareType,DateUTC
2013-07-31 00:00:00,84.2,71.2,30.09,ENE,68,5.0,6.0,65,0.00,CLR,SKC,0.00,WeatherDisplay:10.37,2013-07-31 04:00:00,
2013-07-31 00:15:00,84.2,72.0,30.08,East,80,3.0,6.0,67,0.00,CLR,SKC,0.00,WeatherDisplay:10.37,2013-07-31 04:15:00,
2013-07-31 00:30:00,85.1,71.5,30.08,ENE,59,6.0,8.0,64,0.00,CLR,SKC,0.00,WeatherDisplay:10.37,2013-07-31 04:30:00,
2013-07-31 00:45:00,84.9,71.4,30.08,NNE,32,5.0,8.0,64,0.00,CLR,SKC,0.00,WeatherDisplay:10.37,2013-07-31 04:45:00,
2013-07-31 01:00:00,84.4,70.9,30.07,NE,55,7.0,9.0,64,0.00,CLR,SKC,0.00,WeatherDisplay:10.37,2013-07-31 05:00:00,
2013-07-31 01:15:00,84.0,70.1,30.06,East,80,6.0,9.0,63,0.00,CLR,SKC,0.00,WeatherDisplay:10.37,2013-07-31 05:15:00,
2013-07-31 01:30:00,84.6,69.1,30.06,East,90,7.0,9.0,60,0.00,CLR,SKC,0.00,WeatherDisplay:10.37,2013-07-31 05:30:00,
2013-07-31 01:45:00,84.6,68.2,30.06,East,90,6.0,9.0,58,0.00,CLR,SKC,0.00,WeatherDisplay:10.37,2013-07-31 05:45:00,
2013-07-31 02:00:00,84.6,68.7,30.06,East,90,6.0,8.0,59,0.00,CLR,SKC,0.00,WeatherDisplay:10.37,2013-07-31 06:00:00,
2013-07-31 02:15:00,84.4,69.0,30.05,East,90,7.0,8.0,60,0.00,CLR,SKC,0.00,WeatherDisplay:10.37,2013-07-31 06:15:00,
2013-07-31 02:30:00,83.7,68.8,30.04,East,90,3.0,8.0,61,0.00,CLR,SKC,0.00,WeatherDisplay:10.37,2013-07-31 06:30:00,
2013-07-31 02:45:00,82.8,69.8,30.03,East,90,3.0,6.0,65,0.00,CLR,SKC,0.00,WeatherDisplay:10.37,2013-07-31 06:45:00,
2013-07-31 03:00:00,81.7,69.2,30.03,East,90,3.0,6.0,66,0.00,CLR,SKC,0.00,WeatherDisplay:10.37,2013-07-31 07:00:00,
2013-07-31 03:15:00,81.0,69.0,30.03,East,90,3.0,4.0,67,0.00,CLR,SKC,0.00,WeatherDisplay:10.37,2013-07-31 07:15:00,
2013-07-31 03:30:00,81.0,69.8,30.03,East,90,3.0,4.0,69,0.00,CLR,SKC,0.00,WeatherDisplay:10.37,2013-07-31 07:30:00,
2013-07-31 03:45:00,80.6,70.7,30.02,East,90,2.0,4.0,72,0.00,CLR,SKC,0.00,WeatherDisplay:10.37,2013-07-31 07:45:00,
2013-07-31 04:00:00,79.7,73.0,30.02,ENE,76,1.0,3.0,80,0.00,CLR,SKC,0.00,WeatherDisplay:10.37,2013-07-31 08:00:00,
2013-07-31 04:15:00,79.5,73.5,30.01,NE,45,0.0,2.0,82,0.00,CLR,SKC,0.00,WeatherDisplay:10.37,2013-07-31 08:15:00,
2013-07-31 04:30:00,79.5,73.2,30.01,NE,45,0.0,1.0,81,0.00,CLR,SKC,0.00,WeatherDisplay:10.37,2013-07-31 08:30:00,
2013-07-31 04:45:00,80.2,73.5,30.00,NE,45,1.0,1.0,80,0.00,CLR,SKC,0.00,WeatherDisplay:10.37,2013-07-31 08:45:00,
2013-07-31 05:00:00,80.2,73.5,30.00,East,80,1.0,2.0,80,0.00,CLR,SKC,0.00,WeatherDisplay:10.37,2013-07-31 09:00:00,
2013-07-31 05:15:00,79.9,73.2,30.00,ENE,59,2.0,3.0,80,0.00,CLR,SKC,0.00,WeatherDisplay:10.37,2013-07-31 09:15:00,
2013-07-31 05:30:00,79.3,72.3,30.01,NE,45,1.0,3.0,79,0.00,CLR,SKC,0.00,WeatherDisplay:10.37,2013-07-31 09:30:00,
2013-07-31 05:45:00,78.8,72.1,30.01,NE,45,1.0,2.0,80,0.00,CLR,SKC,0.00,WeatherDisplay:10.37,2013-07-31 09:45:00,
2013-07-31 06:00:00,78.4,72.1,30.00,East,82,5.0,7.0,81,0.00,CLR,SKC,0.00,WeatherDisplay:10.37,2013-07-31 10:00:00,
2013-07-31 06:15:00,78.4,71.8,30.01,East,79,3.0,7.0,80,0.00,CLR,SKC,0.00,WeatherDisplay:10.37,2013-07-31 10:15:00,
2013-07-31 06:30:00,78.3,71.6,30.01,ENE,68,3.0,4.0,80,0.00,CLR,SKC,0.00,WeatherDisplay:10.37,2013-07-31 10:30:00,
2013-07-31 06:45:00,78.3,71.2,30.01,ENE,68,5.0,6.0,79,0.00,CLR,SKC,0.00,WeatherDisplay:10.37,2013-07-31 10:45:00,
2013-07-31 07:00:00,77.9,70.9,30.02,NE,56,3.0,6.0,79,0.00,CLR,SKC,0.00,WeatherDisplay:10.37,2013-07-31 11:00:00,
2013-07-31 07:15:00,77.5,70.5,30.02,ENE,76,5.0,5.0,79,0.00,CLR,SKC,0.00,WeatherDisplay:10.37,2013-07-31 11:15:00,
2013-07-31 07:30:00,77.4,70.0,30.02,East,90,2.0,5.0,78,0.00,CLR,SKC,0.00,WeatherDisplay:10.37,2013-07-31 11:30:00,
2013-07-31 07:45:00,77.4,70.0,30.02,SE,145,6.0,9.0,78,0.00,CLR,SKC,0.00,WeatherDisplay:10.37,2013-07-31 11:45:00,
2013-07-31 08:00:00,77.4,69.6,30.02,ESE,116,6.0,9.0,77,0.00,CLR,SKC,0.00,WeatherDisplay:10.37,2013-07-31 12:00:00,
2013-07-31 08:15:00,77.2,69.8,30.02,East,90,3.0,7.0,78,0.00,CLR,SKC,0.00,WeatherDisplay:10.37,2013-07-31 12:15:00,
2013-07-31 08:30:00,77.0,70.0,30.02,East,90,6.0,7.0,79,0.00,CLR,SKC,0.00,WeatherDisplay:10.37,2013-07-31 12:30:00,
2013-07-31 08:45:00,76.8,70.2,30.02,ENE,63,6.0,8.0,80,0.00,CLR,SKC,0.00,WeatherDisplay:10.37,2013-07-31 12:45:00,
2013-07-31 09:00:00,76.6,70.4,30.02,NE,56,3.0,8.0,81,0.00,CLR,SKC,0.00,WeatherDisplay:10.37,2013-07-31 13:00:00,
2013-07-31 09:15:00,76.5,70.6,30.02,ENE,68,3.0,4.0,82,0.00,CLR,SKC,0.00,WeatherDisplay:10.37,2013-07-31 13:15:00,
2013-07-31 09:30:00,76.3,70.4,30.02,East,79,2.0,4.0,82,0.00,CLR,SKC,0.00,WeatherDisplay:10.37,2013-07-31 13:30:00,
2013-07-31 09:45:00,76.3,70.7,30.02,East,90,6.0,8.0,83,0.00,CLR,SKC,0.00,WeatherDisplay:10.37,2013-07-31 13:45:00,
2013-07-31 10:00:00,75.9,70.7,30.00,East,90,6.0,8.0,84,0.00,CLR,SKC,0.00,WeatherDisplay:10.37,2013-07-31 14:00:00,
2013-07-31 10:15:00,75.9,71.1,30.00,East,90,5.0,8.0,85,0.00,CLR,SKC,0.00,WeatherDisplay:10.37,2013-07-31 14:15:00,
2013-07-31 10:30:00,75.7,70.9,29.99,East,90,8.0,10.0,85,0.00,CLR,SKC,0.00,WeatherDisplay:10.37,2013-07-31 14:30:00,
2013-07-31 10:45:00,75.6,71.1,30.00,East,90,3.0,10.0,86,0.00,CLR,SKC,0.00,WeatherDisplay:10.37,2013-07-31 14:45:00,
2013-07-31 11:00:00,75.7,71.6,30.00,East,90,6.0,8.0,87,0.00,CLR,SKC,0.00,WeatherDisplay:10.37,2013-07-31 15:00:00,
2013-07-31 11:15:00,75.2,71.7,30.00,East,101,3.0,8.0,89,0.01,RA,SKC,0.01,WeatherDisplay:10.37,2013-07-31 15:15:00,
2013-07-31 11:30:00,74.7,72.2,30.00,ESE,119,1.0,5.0,92,0.02,RA,SKC,0.04,WeatherDisplay:10.37,2013-07-31 15:30:00,
2013-07-31 11:45:00,73.2,70.8,30.00,East,90,0.0,2.0,92,0.02,RA,SKC,0.06,WeatherDisplay:10.37,2013-07-31 15:45:00,
2013-07-31 12:00:00,72.9,70.7,29.99,West,270,0.0,1.0,93,0.04,RA,SKC,0.09,WeatherDisplay:10.37,2013-07-31 16:00:00,
2013-07-31 12:15:00,72.7,70.9,29.99,West,270,1.0,2.0,94,0.01,RA,SKC,0.11,WeatherDisplay:10.37,2013-07-31 16:15:00,
2013-07-31 12:30:00,72.5,70.7,29.98,West,270,0.0,2.0,94,0.00,CLR,SKC,0.11,WeatherDisplay:10.37,2013-07-31 16:30:00,
2013-07-31 12:45:00,72.5,70.7,29.98,WSW,243,0.0,0.0,94,0.00,CLR,SKC,0.11,WeatherDisplay:10.37,2013-07-31 16:45:00,
2013-07-31 13:00:00,72.3,70.5,29.97,SSW,198,0.0,0.0,94,0.00,CLR,SKC,0.11,WeatherDisplay:10.37,2013-07-31 17:00:00,
2013-07-31 13:15:00,72.1,70.3,29.96,SSE,153,0.0,0.0,94,0.00,CLR,SKC,0.11,WeatherDisplay:10.37,2013-07-31 17:15:00,
2013-07-31 13:30:00,72.1,70.6,29.96,ESE,108,0.0,0.0,95,0.00,CLR,SKC,0.11,WeatherDisplay:10.37,2013-07-31 17:30:00,
2013-07-31 13:45:00,72.3,70.8,29.95,East,90,0.0,0.0,95,0.00,CLR,SKC,0.11,WeatherDisplay:10.37,2013-07-31 17:45:00,
2013-07-31 14:15:00,72.1,70.9,29.94,East,90,2.0,4.0,96,0.00,CLR,SKC,0.00,WeatherDisplay:10.37,2013-07-31 18:15:00,
2013-07-31 14:30:00,72.1,70.9,29.94,East,90,1.0,4.0,96,0.00,CLR,SKC,0.00,WeatherDisplay:10.37,2013-07-31 18:30:00,
2013-07-31 14:45:00,72.0,71.1,29.93,East,90,3.0,4.0,97,0.00,CLR,SKC,0.00,WeatherDisplay:10.37,2013-07-31 18:45:00,
2013-07-31 15:00:00,72.1,71.2,29.93,East,90,3.0,4.0,97,0.00,CLR,SKC,0.00,WeatherDisplay:10.37,2013-07-31 19:00:00,
2013-07-31 15:15:00,72.1,71.2,29.93,East,90,3.0,4.0,97,0.00,CLR,SKC,0.00,WeatherDisplay:10.37,2013-07-31 19:15:00,
2013-07-31 15:30:00,72.1,70.9,29.93,East,90,2.0,4.0,96,0.00,CLR,SKC,0.00,WeatherDisplay:10.37,2013-07-31 19:30:00,
2013-07-31 15:45:00,72.3,71.1,29.93,NE,40,0.0,4.0,96,0.00,CLR,SKC,0.00,WeatherDisplay:10.37,2013-07-31 19:45:00,
2013-07-31 16:00:00,72.3,70.8,29.93,North,11,0.0,1.0,95,0.00,CLR,SKC,0.00,WeatherDisplay:10.37,2013-07-31 20:00:00,
2013-07-31 16:15:00,72.3,70.8,29.93,ENE,76,1.0,3.0,95,0.00,CLR,SKC,0.00,WeatherDisplay:10.37,2013-07-31 20:15:00,
2013-07-31 16:30:00,72.5,71.0,29.93,East,90,0.0,3.0,95,0.00,CLR,SKC,0.00,WeatherDisplay:10.37,2013-07-31 20:30:00,
2013-07-31 16:45:00,72.5,71.0,29.94,East,90,1.0,3.0,95,0.00,CLR,SKC,0.00,WeatherDisplay:10.37,2013-07-31 20:45:00,
2013-07-31 17:00:00,72.3,70.8,29.94,NE,56,3.0,4.0,95,0.00,CLR,SKC,0.00,WeatherDisplay:10.37,2013-07-31 21:00:00,
2013-07-31 17:15:00,72.3,70.8,29.94,ENE,68,2.0,4.0,95,0.00,CLR,SKC,0.00,WeatherDisplay:10.37,2013-07-31 21:15:00,
2013-07-31 17:30:00,72.1,70.9,29.93,ENE,75,3.0,4.0,96,0.00,CLR,SKC,0.00,WeatherDisplay:10.37,2013-07-31 21:30:00,
2013-07-31 17:45:00,72.3,71.1,29.94,East,79,2.0,4.0,96,0.00,CLR,SKC,0.00,WeatherDisplay:10.37,2013-07-31 21:45:00,
2013-07-31 18:00:00,72.5,71.3,29.94,East,90,3.0,4.0,96,0.00,CLR,SKC,0.00,WeatherDisplay:10.37,2013-07-31 22:00:00,
2013-07-31 18:15:00,72.9,71.3,29.94,East,90,3.0,5.0,95,0.01,RA,SKC,0.01,WeatherDisplay:10.37,2013-07-31 22:15:00,
2013-07-31 18:30:00,73.0,71.5,29.94,East,90,3.0,5.0,95,0.00,CLR,SKC,0.01,WeatherDisplay:10.37,2013-07-31 22:30:00,
2013-07-31 18:45:00,72.9,71.0,29.94,East,90,3.0,4.0,94,0.00,CLR,SKC,0.01,WeatherDisplay:10.37,2013-07-31 22:45:00,
2013-07-31 19:00:00,73.0,71.2,29.94,East,90,1.0,4.0,94,0.00,CLR,SKC,0.01,WeatherDisplay:10.37,2013-07-31 23:00:00,
2013-07-31 19:15:00,73.2,71.4,29.94,East,90,2.0,4.0,94,0.00,CLR,SKC,0.01,WeatherDisplay:10.37,2013-07-31 23:15:00,
2013-07-31 19:30:00,73.9,72.4,29.94,East,90,3.0,5.0,95,0.00,CLR,SKC,0.01,WeatherDisplay:10.37,2013-07-31 23:30:00,
2013-07-31 19:45:00,73.9,72.4,29.94,East,90,3.0,5.0,95,0.00,CLR,SKC,0.01,WeatherDisplay:10.37,2013-07-31 23:45:00,
2013-07-31 20:00:00,74.8,72.7,29.94,SE,135,5.0,5.0,93,0.00,CLR,SKC,0.01,WeatherDisplay:10.37,2013-08-01 00:00:00,
2013-07-31 20:15:00,75.7,72.6,29.93,SE,145,1.0,5.0,90,0.00,CLR,SKC,0.01,WeatherDisplay:10.37,2013-08-01 00:15:00,
2013-07-31 20:30:00,76.6,72.5,29.94,SW,225,1.0,2.0,87,0.00,CLR,SKC,0.01,WeatherDisplay:10.37,2013-08-01 00:30:00,
2013-07-31 20:45:00,77.0,72.5,29.93,East,99,2.0,3.0,86,0.00,CLR,SKC,0.01,WeatherDisplay:10.37,2013-08-01 00:45:00,
2013-07-31 21:00:00,77.5,73.0,29.93,NNE,19,1.0,3.0,86,0.00,CLR,SKC,0.01,WeatherDisplay:10.37,2013-08-01 01:00:00,
2013-07-31 21:15:00,79.7,73.7,29.93,NW,315,1.0,3.0,82,0.00,CLR,SKC,0.01,WeatherDisplay:10.37,2013-08-01 01:15:00,
2013-07-31 21:30:00,80.8,72.1,29.92,NW,315,1.0,3.0,75,0.00,CLR,SKC,0.01,WeatherDisplay:10.37,2013-08-01 01:30:00,
2013-07-31 21:45:00,81.5,72.4,29.92,WNW,288,1.0,4.0,74,0.00,CLR,SKC,0.01,WeatherDisplay:10.37,2013-08-01 01:45:00,
2013-07-31 22:00:00,80.2,72.8,29.92,East,90,1.0,4.0,78,0.00,CLR,SKC,0.01,WeatherDisplay:10.37,2013-08-01 02:00:00,
2013-07-31 22:15:00,82.9,73.4,29.92,North,357,1.0,2.0,73,0.00,CLR,SKC,0.01,WeatherDisplay:10.37,2013-08-01 02:15:00,
2013-07-31 22:30:00,82.0,71.7,29.91,NNW,342,1.0,2.0,71,0.00,CLR,SKC,0.01,WeatherDisplay:10.37,2013-08-01 02:30:00,
2013-07-31 22:45:00,84.4,71.8,29.91,NNE,18,2.0,4.0,66,0.00,CLR,SKC,0.01,WeatherDisplay:10.37,2013-08-01 02:45:00,
2013-07-31 23:00:00,82.8,71.1,29.91,NNW,337,0.0,4.0,68,0.00,CLR,SKC,0.01,WeatherDisplay:10.37,2013-08-01 03:00:00,
2013-07-31 23:15:00,82.2,71.9,29.91,WNW,297,0.0,2.0,71,0.00,CLR,SKC,0.01,WeatherDisplay:10.37,2013-08-01 03:15:00,
2013-07-31 23:30:00,81.5,71.2,29.91,SE,135,1.0,3.0,71,0.00,CLR,SKC,0.01,WeatherDisplay:10.37,2013-08-01 03:30:00,
2013-07-31 23:45:00,80.1,71.4,29.91,ENE,61,0.0,3.0,75,0.00,CLR,SKC,0.01,WeatherDisplay:10.37,2013-08-01 03:45:00,